Terminal Aerodrome Forecast
Issued by NWS Jackson, MS

Home | Current Version | Previous Version | Text Only | Print | Product List | Glossary On
Versions: 1 2 3 4 5 6 7 8 9 10 11 12 13
000
FTUS44 KJAN 182300 RRA
TAFHBG
TAF
KHBG 182353Z 1900/1924 08004KT P6SM -RA FEW006 BKN040 OVC120
     FM191200 05004KT P6SM VCSH OVC050
     FM191500 05004KT 6SM -RA OVC025
     FM192000 06005KT 2SM RA BR VCTS BKN007 OVC012CB=

USA.gov is the U.S. government's official web portal to all federal, state and local government web resources and services.